Aeroporto :
LOGIN :

Iscrizione | Disclaimer

   EN    FR    IT 

 










Sommario :    VFR   VFR Marginale   IFR   IFR Intensivo   IFR Molto Intensivo
Visibilità : 
Base nubi : 
>= 8 km
>= 3000ft
5 / 8 km
1000 / 3000 ft
1500m / 5 km
500 / 1000 ft
800 / 1500m
200 / 500 ft
< 800m
< 200 ft
Simboli :   Temporali  Nebbia  Neve Forte  Precipitazioni Forti  Vento > 20 kt
SIGMETs :   Varie  Temporali  Ghiacco  Turbolenza  Onda orograficha  Ceneri Vulcaniche






- Altitudine del aeroporto : 204 ft
- Codice IATA : AGF


LFBA - Agen

ULTIMO METAR :
  • 221200Z AUTO 11009KT 080V140 CAVOK 10/09 Q0994 TEMPO 11015G25KT

METARs OBSOLETI :
  • 221130Z AUTO 11010KT 9999 FEW001 BKN110 BKN160 09/08 Q0995 TEMPO 11015G25KT
  • 221100Z AUTO 11013KT CAVOK 09/08 Q0996 NOSIG
  • 221030Z AUTO 11011KT CAVOK 08/07 Q0997 NOSIG
  • 221000Z AUTO 11012KT 9000 NSC 08/07 Q0997 TEMPO 4000 BR BKN005
  • 220930Z AUTO 11011KT 8000 NSC 06/06 Q0998 TEMPO 4000 BR BKN005

TAF TAF LFBA
Valido dal 22 a 12 ore il 22 a 21 ore UTC


221100Z 2212/2221 11012KT CAVOK
TEMPO 2212/2221 11015G25KT
PROB40
TEMPO 2216/2219 RA



MetMap, La meteo Aeronautica in un colpo d'occhio ! - Copyright ORBIFLY Dicembre 2007 - Disclaimer

ORBIFLY MET'MAP TEAM :

Programmazione e sviluppo : Alexandra Zaïnal
Concezione e sviluppo : Baudouin d'Aumeries
Co-Programmazione e sviluppo : Marc-Olivier Méhu
Supporto tecnico e logistico : Manuel Goepfert
Aiuto per la traduzione : Arnaldo La Scala

Contatto : metmap@orbifly.com




FONTI E CREDITI :

   NOAA